Startpagina
METAR-TAF:

METAR-TAF

Vliegvelden :

Beiroet, Libanon

breedte: 33-49N, lengte: 035-29E, hoogte: 29 m

Actueel weer

Dit bericht is 16 minuten geleden gemaakt, om 10:00 UTC
Wind 12 kt uit het westzuidwesten
Temperatuur 30°C
Vochtigheid 62%
Druk 1013 hPa
Zicht: 8000 m
Weinig wolken op 3000 ft

METAR: OLBA 211000Z 24012KT 8000 FEW030 30/22 Q1013 NOSIG

Tijdstip: 13:16 (10:16 UTC)

Verwachting

Dit bericht is 6 uur en het 16 minuten geleden gemaakt, om 04:00 UTC
Verwachting geldig van 21 om 06 UTC tot 22 om 12 UTC
Wind 12 kt uit het westzuidwesten
Zicht: 8000 m
Verspreide wolken op 2600 ft
Wijzigt naar
van 21 om 20 UTC tot 21 om 22 UTC
Wind 8 kt uit het zuiden
Wijzigt naar
van 22 om 06 UTC tot 22 om 08 UTC
Wind 18 kt uit het zuidwesten
Gebroken wolken op 2600 ft
Tijdelijke
van 22 om 06 UTC tot 22 om 12 UTC
Wind 15 kt uit het westzuidwesten met uitschieters tot 25 kt

TAF: OLBA 210400Z 2106/2212 24012KT 8000 SCT026 BECMG 2120/2122 17008KT BECMG 2206/2208 23018KT BKN026 TEMPO 2206/2212 24015G25KT

Waarnemingen en weersverwachtingen van meer dan 4000 vliegvelden (METAR en TAF).

De beschikbare stations zijn de gele en rode punten op de kaart.

Ga met uw muis naar het station om de naam te zien.

Klik dan om waarnemingen en weersverwachtingen te zien.

kaart wijzigen: klik op de groene knoppen met een zwart kruis om in te zoomen, op de groene knop met een streepje om uit te zoomen of op de groene pijlen voor aangrenzende kaarten.


METAR-TAF: